Time;durP1;ratioP1;P1;durP2;ratioP2;P2;SDS_P1;SDS_P2;PMS_P1;PMS_P2;Temp;Humidity;BMP_temperature;BMP_pressure;BME280_temperature;BME280_humidity;BME280_pressure;Samples;Min_cycle;Max_cycle;Signal;HPM_P1;HPM_P2
2023/11/15 00:01:12;;;;;;;7.50;5.50;;;;;;;8.40;100.00;99240.27;106283;1254;61239;-61
2023/11/15 00:03:39;;;;;;;7.40;5.20;;;;;;;8.26;100.00;99237.87;106174;1254;75823;-61
2023/11/15 00:06:06;;;;;;;6.90;5.10;;;;;;;8.12;100.00;99238.31;105818;1251;66105;-59
2023/11/15 00:08:33;;;;;;;8.60;4.90;;;;;;;7.98;100.00;99239.33;106088;1256;72718;-61
2023/11/15 00:11:01;;;;;;;8.10;5.40;;;;;;;7.85;100.00;99242.71;106007;1254;61330;-62
2023/11/15 00:13:28;;;;;;;7.30;5.20;;;;;;;7.72;100.00;99243.55;105885;1263;61327;-59
2023/11/15 00:15:55;;;;;;;7.50;5.10;;;;;;;7.60;100.00;99246.09;105798;1257;74458;-60
2023/11/15 00:18:22;;;;;;;8.10;5.80;;;;;;;7.48;100.00;99244.80;105959;1254;66960;-60
2023/11/15 00:20:51;;;;;;;7.10;5.10;;;;;;;7.38;100.00;99244.16;105941;1254;72537;-61
2023/11/15 00:23:18;;;;;;;7.40;5.20;;;;;;;7.27;100.00;99245.82;106226;1251;62071;-61
2023/11/15 00:25:45;;;;;;;7.40;5.20;;;;;;;7.18;100.00;99245.55;106242;1254;61250;-60
2023/11/15 00:28:13;;;;;;;6.50;4.80;;;;;;;7.08;100.00;99246.85;105890;1251;74653;-60
2023/11/15 00:30:40;;;;;;;8.60;5.50;;;;;;;6.99;100.00;99244.36;105945;1258;67294;-61
2023/11/15 00:33:07;;;;;;;7.90;5.00;;;;;;;6.90;100.00;99239.23;106400;1255;71271;-61
2023/11/15 00:35:34;;;;;;;8.10;5.30;;;;;;;6.81;100.00;99242.16;105761;1251;63345;-60
2023/11/15 00:38:03;;;;;;;6.90;5.10;;;;;;;6.74;100.00;99235.42;106106;1252;61221;-60
2023/11/15 00:40:30;;;;;;;6.90;4.40;;;;;;;6.67;100.00;99234.75;105855;1251;73461;-60
2023/11/15 00:42:57;;;;;;;8.80;5.30;;;;;;;6.60;100.00;99234.00;105803;1257;67254;-65
2023/11/15 00:45:24;;;;;;;7.60;5.40;;;;;;;6.55;100.00;99236.42;105850;1251;72820;-60
2023/11/15 00:47:51;;;;;;;9.10;5.20;;;;;;;6.60;100.00;99238.02;106140;1257;61269;-61
2023/11/15 00:50:18;;;;;;;7.60;5.40;;;;;;;6.63;100.00;99241.41;105793;1255;61215;-61
2023/11/15 00:52:45;;;;;;;9.10;5.40;;;;;;;6.67;100.00;99239.26;105851;1252;74509;-60
2023/11/15 00:55:12;;;;;;;8.10;5.50;;;;;;;6.69;100.00;99241.06;105861;1257;67166;-61
2023/11/15 00:57:40;;;;;;;8.70;6.10;;;;;;;6.72;100.00;99243.58;106126;1257;71412;-60
2023/11/15 01:00:23;;;;;;;7.80;5.10;;;;;;;6.76;100.00;99243.27;106009;1251;61796;-60
2023/11/15 01:02:51;;;;;;;7.80;5.20;;;;;;;6.80;100.00;99246.77;106036;1257;61235;-61
2023/11/15 01:05:18;;;;;;;6.70;5.10;;;;;;;6.84;100.00;99249.05;105694;1258;74812;-61
2023/11/15 01:07:45;;;;;;;8.20;5.10;;;;;;;6.84;100.00;99247.88;106203;1257;66746;-58
2023/11/15 01:10:13;;;;;;;7.90;5.60;;;;;;;6.84;100.00;99247.65;105919;1257;72464;-61
2023/11/15 01:12:41;;;;;;;9.00;5.40;;;;;;;6.87;100.00;99250.16;106003;1259;61145;-65
2023/11/15 01:15:11;;;;;;;7.10;4.80;;;;;;;6.87;100.00;99248.23;105820;1256;61310;-60
2023/11/15 01:17:38;;;;;;;9.70;5.70;;;;;;;6.85;100.00;99247.94;106355;1254;74695;-61
2023/11/15 01:20:06;;;;;;;7.50;5.40;;;;;;;6.82;100.00;99245.52;106000;1256;66948;-60
2023/11/15 01:22:33;;;;;;;6.60;5.00;;;;;;;6.76;100.00;99243.30;105975;1254;71260;-60
2023/11/15 01:25:00;;;;;;;8.30;5.10;;;;;;;6.69;100.00;99243.81;105942;1251;61470;-62
2023/11/15 01:27:27;;;;;;;7.70;5.00;;;;;;;6.60;100.00;99242.41;106324;1251;61124;-60
2023/11/15 01:29:54;;;;;;;8.70;5.40;;;;;;;6.50;100.00;99241.66;106149;1256;74747;-60
2023/11/15 01:32:22;;;;;;;8.00;5.10;;;;;;;6.42;100.00;99246.66;105979;1256;67356;-61
2023/11/15 01:34:49;;;;;;;8.00;5.60;;;;;;;6.33;100.00;99249.58;105967;1252;72451;-61
2023/11/15 01:37:17;;;;;;;8.20;5.30;;;;;;;6.28;100.00;99250.58;105674;1266;61312;-61
2023/11/15 01:39:44;;;;;;;7.50;5.40;;;;;;;6.22;100.00;99247.67;106298;1254;61253;-59
2023/11/15 01:42:11;;;;;;;8.10;5.40;;;;;;;6.13;100.00;99250.27;106011;1254;74495;-59
2023/11/15 01:44:38;;;;;;;9.90;6.00;;;;;;;6.03;100.00;99255.38;106055;1251;65913;-63
2023/11/15 01:47:05;;;;;;;9.90;5.60;;;;;;;5.96;100.00;99257.43;105954;1251;71487;-59
2023/11/15 01:49:32;;;;;;;7.20;5.40;;;;;;;5.91;100.00;99263.79;105807;1252;61669;-60
2023/11/15 01:51:59;;;;;;;9.30;6.00;;;;;;;5.89;100.00;99263.20;106200;1251;61250;-60
2023/11/15 01:54:26;;;;;;;8.90;6.00;;;;;;;5.89;100.00;99265.94;106148;1255;73096;-61
2023/11/15 01:56:53;;;;;;;9.40;6.10;;;;;;;5.89;100.00;99270.91;105944;1251;66996;-59
2023/11/15 01:59:20;;;;;;;9.90;6.40;;;;;;;5.90;100.00;99274.40;105840;1251;72673;-61
2023/11/15 02:01:47;;;;;;;11.50;6.10;;;;;;;5.93;100.00;99277.60;106014;1251;61201;-60
2023/11/15 02:04:14;;;;;;;9.30;6.30;;;;;;;5.93;100.00;99278.77;105941;1254;61308;-60
2023/11/15 02:06:42;;;;;;;9.80;7.20;;;;;;;5.94;100.00;99280.69;106493;1254;74672;-61
2023/11/15 02:09:10;;;;;;;9.10;6.00;;;;;;;5.97;100.00;99281.24;105766;1257;67896;-62
2023/11/15 02:11:38;;;;;;;10.40;6.40;;;;;;;6.01;100.00;99280.27;105673;1260;71472;-60
2023/11/15 02:14:06;;;;;;;11.60;6.80;;;;;;;6.07;100.00;99281.98;105900;1257;62017;-61
2023/11/15 02:16:33;;;;;;;10.20;6.70;;;;;;;6.13;100.00;99274.55;105991;1256;61161;-63
2023/11/15 02:19:00;;;;;;;10.40;6.20;;;;;;;6.19;100.00;99274.16;105722;1258;74640;-59
2023/11/15 02:21:27;;;;;;;10.10;7.00;;;;;;;6.21;100.00;99273.82;106001;1256;278969;-62
2023/11/15 02:23:54;;;;;;;9.10;6.40;;;;;;;6.19;100.00;99276.58;105941;1256;72135;-60
2023/11/15 02:26:22;;;;;;;8.00;5.50;;;;;;;6.19;100.00;99273.91;106421;1256;61332;-60
2023/11/15 02:28:49;;;;;;;10.00;6.60;;;;;;;6.16;100.00;99277.65;105691;1258;61407;-61
2023/11/15 02:31:16;;;;;;;9.30;6.80;;;;;;;6.17;100.00;99277.59;105919;1254;74634;-60
2023/11/15 02:33:44;;;;;;;10.20;6.80;;;;;;;6.19;100.00;99275.08;105901;1256;65014;-60
2023/11/15 02:36:12;;;;;;;11.20;7.40;;;;;;;6.22;100.00;99272.99;106017;1254;72585;-62
2023/11/15 02:38:39;;;;;;;12.10;7.70;;;;;;;6.26;100.00;99278.86;106126;1251;61798;-62
2023/11/15 02:41:07;;;;;;;10.40;7.40;;;;;;;6.33;100.00;99281.54;105955;1251;61266;-61
2023/11/15 02:43:35;;;;;;;10.10;6.50;;;;;;;6.38;100.00;99291.16;106130;1253;73083;-60
2023/11/15 02:46:02;;;;;;;10.50;6.50;;;;;;;6.43;100.00;99293.46;106078;1251;67582;-60
2023/11/15 02:48:30;;;;;;;12.10;6.80;;;;;;;6.49;100.00;99296.73;105825;1257;72472;-60
2023/11/15 02:50:57;;;;;;;10.00;6.50;;;;;;;6.55;100.00;99296.48;105712;1252;61655;-59
2023/11/15 02:53:24;;;;;;;11.20;8.00;;;;;;;6.62;100.00;99294.92;106211;1251;61154;-60
2023/11/15 02:55:52;;;;;;;11.70;7.70;;;;;;;6.66;100.00;99292.16;105933;1251;73435;-59
2023/11/15 02:58:19;;;;;;;14.10;7.90;;;;;;;6.70;100.00;99291.04;105941;1254;66360;-59
2023/11/15 03:00:46;;;;;;;11.70;7.40;;;;;;;6.72;100.00;99286.93;105880;1254;72473;-63
2023/11/15 03:03:14;;;;;;;11.20;7.30;;;;;;;6.73;100.00;99282.83;105808;1257;61904;-60
2023/11/15 03:05:42;;;;;;;9.90;7.30;;;;;;;6.72;100.00;99281.39;106012;1254;61232;-59
2023/11/15 03:08:09;;;;;;;11.30;6.80;;;;;;;6.70;100.00;99286.98;105821;1252;73340;-59
2023/11/15 03:10:37;;;;;;;12.60;6.90;;;;;;;6.68;100.00;99283.45;106215;1254;67385;-59
2023/11/15 03:13:04;;;;;;;9.50;6.70;;;;;;;6.67;100.00;99287.88;105915;1252;72983;-59
2023/11/15 03:15:32;;;;;;;11.00;7.70;;;;;;;6.66;100.00;99295.06;106230;1252;61212;-59
2023/11/15 03:17:59;;;;;;;11.60;8.00;;;;;;;6.65;100.00;99289.19;106318;1251;61106;-59
2023/11/15 03:20:26;;;;;;;10.00;7.10;;;;;;;6.65;100.00;99287.48;106453;1251;73413;-63
2023/11/15 03:22:53;;;;;;;9.50;6.60;;;;;;;6.65;100.00;99289.75;106159;1251;66613;-59
2023/11/15 03:25:21;;;;;;;12.20;7.70;;;;;;;6.63;100.00;99288.02;105975;1255;72560;-59
2023/11/15 03:27:48;;;;;;;13.20;8.00;;;;;;;6.62;100.00;99287.80;106043;1254;62124;-59
2023/11/15 03:30:15;;;;;;;13.00;6.90;;;;;;;6.60;100.00;99283.52;106182;1251;61336;-59
2023/11/15 03:32:43;;;;;;;11.40;7.50;;;;;;;6.56;100.00;99281.75;106243;1251;75135;-60
2023/11/15 03:35:11;;;;;;;11.30;6.80;;;;;;;6.49;100.00;99277.77;105786;1251;66994;-59
2023/11/15 03:37:38;;;;;;;11.30;7.50;;;;;;;6.41;100.00;99286.15;106416;1255;72890;-59
2023/11/15 03:40:08;;;;;;;10.80;7.00;;;;;;;6.30;100.00;99289.42;105971;1252;61676;-59
2023/11/15 03:42:36;;;;;;;11.70;7.10;;;;;;;6.21;100.00;99287.83;105867;1250;61178;-60
2023/11/15 03:45:04;;;;;;;11.70;6.10;;;;;;;6.12;100.00;99290.02;105725;1252;76285;-59
2023/11/15 03:47:33;;;;;;;9.60;6.30;;;;;;;6.09;100.00;99288.66;106272;1251;67360;-59
2023/11/15 03:50:01;;;;;;;11.60;7.30;;;;;;;6.04;100.00;99290.00;106153;1254;72467;-59
2023/11/15 03:52:29;;;;;;;11.10;6.10;;;;;;;6.01;100.00;99286.27;106002;1252;62119;-62
2023/11/15 03:54:56;;;;;;;9.10;7.00;;;;;;;5.97;100.00;99287.39;106164;1254;61362;-59
2023/11/15 03:57:24;;;;;;;10.20;7.10;;;;;;;5.93;100.00;99286.72;105927;1251;73226;-59
2023/11/15 03:59:58;;;;;;;9.60;6.80;;;;;;;5.88;100.00;99279.84;107858;1251;65672;-59
2023/11/15 04:02:26;;;;;;;11.00;7.20;;;;;;;5.82;100.00;99281.04;106087;1254;71331;-62
2023/11/15 04:04:54;;;;;;;9.50;6.20;;;;;;;5.76;100.00;99278.80;106011;1251;62038;-59
2023/11/15 04:07:21;;;;;;;11.30;6.90;;;;;;;5.72;100.00;99284.10;106033;1254;61125;-60
2023/11/15 04:09:49;;;;;;;9.20;6.60;;;;;;;5.70;100.00;99284.98;105988;1251;74654;-59
2023/11/15 04:12:17;;;;;;;11.40;7.40;;;;;;;5.69;100.00;99284.39;106483;1251;65732;-59
2023/11/15 04:14:43;;;;;;;13.20;7.60;;;;;;;5.68;100.00;99287.29;105718;1254;71794;-60
2023/11/15 04:17:11;;;;;;;12.40;7.00;;;;;;;5.67;100.00;99288.40;105994;1254;61259;-60
2023/11/15 04:19:38;;;;;;;15.30;8.60;;;;;;;5.66;100.00;99284.89;105962;1251;61263;-61
2023/11/15 04:22:05;;;;;;;10.40;6.90;;;;;;;5.67;100.00;99287.80;106471;1251;74700;-60
2023/11/15 04:24:40;;;;;;;12.10;7.30;;;;;;;5.64;100.00;99285.88;105586;1266;66160;-62
2023/11/15 04:27:07;;;;;;;10.30;6.10;;;;;;;5.59;100.00;99281.88;105999;1250;70466;-60
2023/11/15 04:29:37;;;;;;;12.70;7.50;;;;;;;5.55;100.00;99281.89;105954;1251;61438;-60
2023/11/15 04:32:04;;;;;;;10.70;6.30;;;;;;;5.50;100.00;99277.41;106182;1251;61242;-64
2023/11/15 04:34:32;;;;;;;11.80;7.00;;;;;;;5.48;100.00;99280.98;106139;1251;74375;-60
2023/11/15 04:36:58;;;;;;;14.40;7.90;;;;;;;5.44;100.00;99278.48;105725;1251;66961;-60
2023/11/15 04:39:25;;;;;;;13.90;7.80;;;;;;;5.41;100.00;99280.73;105690;1254;72572;-60
2023/11/15 04:41:52;;;;;;;12.40;8.20;;;;;;;5.37;100.00;99285.94;105800;1254;61319;-60
2023/11/15 04:44:23;;;;;;;11.30;7.10;;;;;;;5.34;100.00;99288.41;106055;1251;61292;-60
2023/11/15 04:46:50;;;;;;;11.70;6.60;;;;;;;5.30;100.00;99296.13;105900;1251;73300;-60
2023/11/15 04:49:18;;;;;;;10.60;6.50;;;;;;;5.27;100.00;99300.77;105583;1251;67308;-59
2023/11/15 04:51:45;;;;;;;12.10;7.40;;;;;;;5.25;100.00;99297.88;105728;1254;71186;-63
2023/11/15 04:54:12;;;;;;;10.20;6.20;;;;;;;5.25;100.00;99304.80;105737;1254;61161;-59
2023/11/15 04:56:39;;;;;;;12.90;6.80;;;;;;;5.25;100.00;99306.98;106242;1254;61229;-59
2023/11/15 04:59:06;;;;;;;11.30;6.90;;;;;;;5.26;100.00;99308.20;105903;1251;75415;-60
2023/11/15 05:01:33;;;;;;;13.60;7.70;;;;;;;5.28;100.00;99315.03;105554;1254;67020;-59
2023/11/15 05:04:00;;;;;;;8.70;6.40;;;;;;;5.30;100.00;99330.98;105958;1254;72526;-62
2023/11/15 05:06:27;;;;;;;10.70;7.60;;;;;;;5.35;100.00;99339.44;106047;1252;61218;-60
2023/11/15 05:08:55;;;;;;;10.60;6.30;;;;;;;5.47;100.00;99340.17;105727;1251;61429;-59
2023/11/15 05:11:22;;;;;;;10.80;6.70;;;;;;;5.70;100.00;99340.36;106137;1252;73751;-59
2023/11/15 05:13:49;;;;;;;9.70;6.70;;;;;;;5.95;100.00;99339.52;105944;1254;66172;-62
2023/11/15 05:16:16;;;;;;;10.60;6.50;;;;;;;6.24;100.00;99341.90;105769;1254;72654;-59
2023/11/15 05:18:43;;;;;;;10.40;6.10;;;;;;;6.55;100.00;99345.55;106270;1251;61185;-59
2023/11/15 05:21:10;;;;;;;10.90;6.70;;;;;;;6.87;100.00;99342.36;105838;1254;61220;-59
2023/11/15 05:23:37;;;;;;;10.20;6.30;;;;;;;7.19;100.00;99338.89;105773;1251;72521;-60
2023/11/15 05:26:07;;;;;;;10.20;6.70;;;;;;;7.52;100.00;99340.91;105924;1251;65627;-60
2023/11/15 05:28:34;;;;;;;11.80;6.80;;;;;;;7.88;100.00;99341.77;105741;1251;71183;-59
2023/11/15 05:31:01;;;;;;;8.40;5.60;;;;;;;8.25;100.00;99339.75;105702;1250;61170;-59
2023/11/15 05:33:30;;;;;;;10.50;6.20;;;;;;;8.65;100.00;99342.31;105744;1257;61176;-59
2023/11/15 05:35:57;;;;;;;10.70;5.70;;;;;;;8.99;100.00;99341.59;105813;1255;74467;-60
2023/11/15 05:38:24;;;;;;;9.20;6.30;;;;;;;9.25;100.00;99340.90;105706;1251;67127;-60
2023/11/15 05:40:51;;;;;;;10.50;5.70;;;;;;;9.49;100.00;99339.38;105645;1257;72914;-59
2023/11/15 05:43:18;;;;;;;10.00;5.90;;;;;;;9.75;100.00;99339.20;105970;1251;61984;-59
2023/11/15 05:45:45;;;;;;;8.90;5.50;;;;;;;10.02;100.00;99340.84;105978;1251;61260;-61
2023/11/15 05:48:12;;;;;;;9.00;5.90;;;;;;;10.29;100.00;99338.46;105698;1251;75220;-59
2023/11/15 05:50:39;;;;;;;11.00;5.90;;;;;;;10.54;100.00;99341.50;105798;1251;66747;-60
2023/11/15 05:53:06;;;;;;;8.60;6.30;;;;;;;10.82;100.00;99334.58;105783;1254;72717;-59
2023/11/15 05:55:33;;;;;;;9.60;6.10;;;;;;;11.12;100.00;99333.68;106227;1251;61132;-60
2023/11/15 05:58:00;;;;;;;10.60;5.60;;;;;;;11.42;100.00;99338.04;105769;1251;61244;-59
2023/11/15 06:00:27;;;;;;;9.00;5.10;;;;;;;11.69;100.00;99334.44;105787;1254;75204;-59
2023/11/15 06:02:54;;;;;;;8.40;5.60;;;;;;;11.96;100.00;99324.08;105790;1254;65673;-59
2023/11/15 06:05:21;;;;;;;8.50;5.80;;;;;;;12.07;100.00;99317.48;106049;1251;72510;-60
2023/11/15 06:07:48;;;;;;;9.50;6.20;;;;;;;12.12;100.00;99306.02;106020;1258;61618;-60
2023/11/15 06:10:15;;;;;;;9.40;6.20;;;;;;;12.26;100.00;99294.61;105765;1251;61246;-59
2023/11/15 06:12:42;;;;;;;10.30;6.00;;;;;;;12.47;100.00;99285.30;105814;1254;74459;-59
2023/11/15 06:15:10;;;;;;;10.30;5.80;;;;;;;12.68;100.00;99274.75;105770;1254;67747;-59
2023/11/15 06:17:41;;;;;;;11.20;6.50;;;;;;;12.66;100.00;99268.58;105851;1254;72383;-59
2023/11/15 06:20:09;;;;;;;9.80;5.30;;;;;;;12.30;100.00;99265.67;105788;1253;61323;-61
2023/11/15 06:22:40;;;;;;;8.60;6.20;;;;;;;11.70;100.00;99258.24;105880;1250;61140;-59
2023/11/15 06:25:07;;;;;;;9.40;6.10;;;;;;;10.99;100.00;99252.79;105811;1251;73550;-59
2023/11/15 06:27:37;;;;;;;10.10;6.30;;;;;;;10.39;100.00;99252.23;105737;1251;67206;-58
2023/11/15 06:30:08;;;;;;;11.10;6.20;;;;;;;9.93;100.00;99254.34;105787;1251;72162;-61
2023/11/15 06:32:35;;;;;;;10.00;5.90;;;;;;;9.53;100.00;99251.77;105688;1251;61302;-62
2023/11/15 06:35:02;;;;;;;11.30;6.40;;;;;;;9.18;100.00;99250.42;105871;1254;61223;-61
2023/11/15 06:37:33;;;;;;;11.40;6.80;;;;;;;9.10;100.00;99256.91;105768;1251;73584;-59
2023/11/15 06:40:07;;;;;;;10.00;6.60;;;;;;;9.44;100.00;99268.02;105682;1253;65950;-60
2023/11/15 06:42:35;;;;;;;14.80;6.50;;;;;;;9.97;100.00;99270.42;105739;1252;72768;-60
2023/11/15 06:45:02;;;;;;;13.00;6.80;;;;;;;10.56;100.00;99271.29;106037;1250;61315;-60
2023/11/15 06:47:29;;;;;;;12.20;6.80;;;;;;;11.15;100.00;99275.96;105681;1251;61221;-60
2023/11/15 06:49:57;;;;;;;9.40;5.50;;;;;;;11.69;100.00;99272.48;105640;1256;73818;-59
2023/11/15 06:52:28;;;;;;;;;;;;;;;12.19;100.00;99271.65;105569;1251;66101;-57
2023/11/15 06:54:55;;;;;;;13.80;6.50;;;;;;;12.62;100.00;99265.17;105699;1256;70209;-57
2023/11/15 06:57:22;;;;;;;9.10;5.70;;;;;;;12.95;100.00;99253.11;105605;1251;61204;-58
2023/11/15 06:59:50;;;;;;;9.80;5.80;;;;;;;13.21;100.00;99248.39;106030;1251;61234;-59
2023/11/15 07:02:16;;;;;;;8.70;6.00;;;;;;;13.51;100.00;99242.82;105603;1253;74834;-59
2023/11/15 07:04:43;;;;;;;8.80;5.30;;;;;;;13.81;100.00;99232.08;105546;1251;65972;-58
2023/11/15 07:07:11;;;;;;;9.50;6.40;;;;;;;13.98;100.00;99223.58;105789;1251;72664;-59
2023/11/15 07:09:38;;;;;;;10.80;5.90;;;;;;;14.12;100.00;99218.35;105943;1251;61282;-59
2023/11/15 07:12:06;;;;;;;8.60;5.90;;;;;;;14.42;100.00;99211.77;105664;1251;61112;-58
2023/11/15 07:14:34;;;;;;;8.80;5.60;;;;;;;14.87;100.00;99215.73;105573;1251;74420;-58
2023/11/15 07:17:01;;;;;;;11.10;6.80;;;;;;;15.18;100.00;99210.59;105661;1255;65751;-59
2023/11/15 07:19:28;;;;;;;9.50;5.60;;;;;;;15.24;100.00;99207.29;105915;1254;72644;-60
2023/11/15 07:21:56;;;;;;;9.40;5.90;;;;;;;15.12;100.00;99204.26;105924;1251;61349;-57
2023/11/15 07:24:24;;;;;;;10.90;5.50;;;;;;;15.04;100.00;99206.39;105704;1254;61443;-57
2023/11/15 07:26:51;;;;;;;11.90;6.10;;;;;;;15.07;100.00;99205.91;105648;1251;74712;-57
2023/11/15 07:29:19;;;;;;;9.90;6.50;;;;;;;15.10;100.00;99205.48;106109;1251;66869;-60
2023/11/15 07:31:52;;;;;;;10.00;6.70;;;;;;;15.07;100.00;99204.80;105697;1252;72168;-58
2023/11/15 07:34:22;;;;;;;11.80;7.10;;;;;;;14.81;100.00;99204.53;105789;1251;61121;-58
2023/11/15 07:36:49;;;;;;;9.70;6.50;;;;;;;14.36;100.00;99199.70;105603;1252;61253;-58
2023/11/15 07:39:18;;;;;;;10.00;6.40;;;;;;;13.83;100.00;99206.61;105733;1251;73483;-60
2023/11/15 07:41:45;;;;;;;10.90;7.20;;;;;;;13.32;100.00;99211.80;105926;1251;68158;-58
2023/11/15 07:44:15;;;;;;;13.60;7.50;;;;;;;12.88;100.00;99216.83;105673;1254;71468;-57
2023/11/15 07:46:49;;;;;;;10.40;6.40;;;;;;;12.54;100.00;99226.25;105783;1254;61259;-57
2023/11/15 07:49:23;;;;;;;11.80;6.30;;;;;;;12.32;100.00;99236.42;105332;1252;61131;-58
2023/11/15 07:51:50;;;;;;;12.30;7.40;;;;;;;12.14;100.00;99249.61;105650;1254;74658;-58
2023/11/15 07:54:19;;;;;;;10.90;6.80;;;;;;;12.09;100.00;99252.27;105728;1254;65942;-57
2023/11/15 07:56:46;;;;;;;10.10;7.20;;;;;;;12.22;100.00;99259.77;105802;1254;72656;-57
2023/11/15 07:59:14;;;;;;;11.40;6.90;;;;;;;12.51;100.00;99259.44;105729;1254;62417;-58
2023/11/15 08:01:42;;;;;;;14.00;7.50;;;;;;;12.97;100.00;99261.05;105595;1256;61625;-57
2023/11/15 08:04:14;;;;;;;11.30;7.20;;;;;;;13.52;100.00;99259.48;105536;1251;74681;-57
2023/11/15 08:06:43;;;;;;;10.40;6.20;;;;;;;13.97;100.00;99253.27;106250;1251;68008;-57
2023/11/15 08:09:26;;;;;;;10.00;6.70;;;;;;;14.21;100.00;99243.18;105962;1252;72467;-58
2023/11/15 08:11:55;;;;;;;12.10;7.40;;;;;;;14.15;100.00;99239.35;106319;1254;61227;-59
2023/11/15 08:14:22;;;;;;;10.10;6.50;;;;;;;14.04;100.00;99228.89;105962;1251;61254;-58
2023/11/15 08:16:49;;;;;;;10.30;6.00;;;;;;;14.03;100.00;99222.44;106265;1254;75011;-61
2023/11/15 08:19:17;;;;;;;8.90;5.80;;;;;;;14.12;100.00;99220.88;105923;1250;67168;-58
2023/11/15 08:21:44;;;;;;;8.60;5.60;;;;;;;14.23;100.00;99215.17;106316;1251;72463;-58
2023/11/15 08:24:16;;;;;;;8.90;5.70;;;;;;;14.34;100.00;99205.39;106124;1254;61881;-58
2023/11/15 08:26:44;;;;;;;10.20;5.60;;;;;;;14.34;100.00;99200.81;106317;1250;61115;-59
2023/11/15 08:29:12;;;;;;;10.20;6.00;;;;;;;14.35;100.00;99202.20;105946;1251;73614;-56
2023/11/15 08:31:39;;;;;;;8.80;5.60;;;;;;;14.48;100.00;99200.15;105874;1251;67279;-58
2023/11/15 08:34:06;;;;;;;9.70;5.60;;;;;;;14.63;100.00;99195.29;106230;1251;72783;-57
2023/11/15 08:36:33;;;;;;;8.30;5.20;;;;;;;14.65;100.00;99193.40;105966;1251;61923;-59
2023/11/15 08:39:00;;;;;;;9.20;6.00;;;;;;;14.47;100.00;99189.64;105880;1251;61236;-57
2023/11/15 08:41:28;;;;;;;8.90;5.70;;;;;;;14.09;100.00;99189.44;105939;1250;74171;-57
2023/11/15 08:43:56;;;;;;;11.10;6.20;;;;;;;13.64;100.00;99191.80;106182;1254;65917;-57
2023/11/15 08:46:26;;;;;;;9.40;6.00;;;;;;;13.28;100.00;99191.89;106357;1250;74669;-59
2023/11/15 08:48:54;;;;;;;10.20;6.50;;;;;;;13.07;100.00;99192.20;105804;1251;61802;-57
2023/11/15 08:51:23;;;;;;;11.00;6.20;;;;;;;12.87;100.00;99192.37;105858;1250;61192;-59
2023/11/15 08:53:50;;;;;;;11.50;5.60;;;;;;;12.68;100.00;99188.19;105937;1251;75171;-59
2023/11/15 08:56:19;;;;;;;8.30;6.00;;;;;;;12.57;100.00;99185.08;106382;1251;67606;-59
2023/11/15 08:58:46;;;;;;;9.80;6.00;;;;;;;12.50;100.00;99187.14;106132;1251;72743;-58
2023/11/15 09:01:13;;;;;;;9.20;5.60;;;;;;;12.43;100.00;99185.91;105932;1251;61818;-58
2023/11/15 09:03:41;;;;;;;9.50;5.90;;;;;;;12.46;100.00;99189.81;105946;1254;61148;-58
2023/11/15 09:06:11;;;;;;;12.20;6.20;;;;;;;12.60;100.00;99185.56;106175;1250;74929;-60
2023/11/15 09:08:38;;;;;;;12.60;6.00;;;;;;;12.81;100.00;99178.77;105641;1254;66218;-58
2023/11/15 09:11:06;;;;;;;10.20;5.60;;;;;;;13.05;100.00;99169.85;106104;1250;74068;-58
2023/11/15 09:13:33;;;;;;;11.80;5.70;;;;;;;13.16;100.00;99163.52;105566;1251;61367;-58
2023/11/15 09:16:01;;;;;;;12.20;5.90;;;;;;;13.14;100.00;99160.98;106132;1252;61236;-62
2023/11/15 09:18:30;;;;;;;9.70;5.40;;;;;;;13.09;100.00;99160.01;106197;1250;76170;-58
2023/11/15 09:20:58;;;;;;;12.10;5.20;;;;;;;13.05;100.00;99158.82;106158;1250;67673;-58
2023/11/15 09:23:25;;;;;;;9.30;5.50;;;;;;;13.01;100.00;99159.17;106191;1255;71491;-58
2023/11/15 09:26:00;;;;;;;10.40;5.70;;;;;;;12.97;100.00;99158.47;105914;1251;61384;-59
2023/11/15 09:28:28;;;;;;;11.60;5.60;;;;;;;12.88;100.00;99162.86;105985;1254;61266;-58
2023/11/15 09:30:56;;;;;;;9.50;5.80;;;;;;;12.73;100.00;99163.98;106015;1250;76181;-58
2023/11/15 09:33:23;;;;;;;11.70;6.20;;;;;;;12.60;100.00;99159.59;106290;1250;68415;-58
2023/11/15 09:35:53;;;;;;;12.60;6.50;;;;;;;12.42;100.00;99155.48;106082;1251;74556;-58
2023/11/15 09:38:27;;;;;;;10.70;6.30;;;;;;;12.28;100.00;99146.79;105750;1254;61355;-57
2023/11/15 09:40:55;;;;;;;9.20;5.50;;;;;;;12.16;100.00;99151.23;105973;1251;61732;-57
2023/11/15 09:43:23;;;;;;;10.70;6.30;;;;;;;12.06;100.00;99153.00;105851;1253;76214;-57
2023/11/15 09:45:50;;;;;;;12.20;6.60;;;;;;;12.01;100.00;99155.23;106023;1254;67472;-57
2023/11/15 09:48:18;;;;;;;14.40;6.70;;;;;;;11.96;100.00;99152.88;105939;1250;73115;-57
2023/11/15 09:50:48;;;;;;;11.90;7.30;;;;;;;11.94;100.00;99155.43;105886;1250;61976;-56
2023/11/15 09:53:16;;;;;;;11.20;6.40;;;;;;;11.95;100.00;99147.71;105995;1251;61403;-57
2023/11/15 09:55:43;;;;;;;10.40;5.80;;;;;;;11.95;100.00;99149.29;105861;1256;76039;-57
2023/11/15 09:58:13;;;;;;;9.80;5.70;;;;;;;11.92;100.00;99151.20;105989;1250;68726;-57
2023/11/15 10:00:40;;;;;;;8.40;5.40;;;;;;;11.88;100.00;99150.64;105976;1251;74383;-57
2023/11/15 10:03:07;;;;;;;10.70;6.30;;;;;;;11.83;100.00;99156.30;105893;1251;63010;-56
2023/11/15 10:05:35;;;;;;;9.50;5.40;;;;;;;11.79;100.00;99156.39;106032;1251;61230;-59
2023/11/15 10:08:10;;;;;;;9.20;5.70;;;;;;;11.76;100.00;99159.05;105738;1251;73639;-57
2023/11/15 10:10:38;;;;;;;10.00;6.10;;;;;;;11.75;100.00;99161.91;105719;1251;67581;-57
2023/11/15 10:13:15;;;;;;;9.10;5.70;;;;;;;11.70;100.00;99164.75;105525;1254;74078;-56
2023/11/15 10:15:46;;;;;;;11.10;5.70;;;;;;;11.65;100.00;99167.60;105875;1251;63653;-57
2023/11/15 10:18:14;;;;;;;9.80;6.10;;;;;;;11.64;100.00;99161.88;105667;1251;61157;-58
2023/11/15 10:20:42;;;;;;;12.40;6.40;;;;;;;11.61;100.00;99163.70;105845;1251;76009;-58
2023/11/15 10:23:11;;;;;;;8.50;5.20;;;;;;;11.57;100.00;99170.46;106031;1251;68672;-58
2023/11/15 10:25:50;;;;;;;9.30;5.60;;;;;;;11.54;100.00;99171.52;105903;1257;73997;-58
2023/11/15 10:28:21;;;;;;;10.20;5.70;;;;;;;11.50;100.00;99169.04;106160;1250;63594;-58
2023/11/15 10:31:04;;;;;;;11.50;6.10;;;;;;;11.44;100.00;99174.48;105826;1251;61732;-58
2023/11/15 10:33:32;;;;;;;11.70;6.40;;;;;;;11.39;100.00;99176.36;105812;1254;76386;-58
2023/11/15 10:36:16;;;;;;;8.20;5.50;;;;;;;11.35;100.00;99175.96;106013;1251;68402;-58
2023/11/15 10:38:50;;;;;;;14.60;7.50;;;;;;;11.31;100.00;99179.40;106054;1254;71282;-59
2023/11/15 10:41:19;;;;;;;10.70;6.50;;;;;;;11.28;100.00;99179.15;105884;1254;61650;-58
2023/11/15 10:43:50;;;;;;;12.20;6.50;;;;;;;11.25;100.00;99178.82;106255;1254;61157;-59
2023/11/15 10:46:36;;;;;;;10.00;7.10;;;;;;;11.23;100.00;99176.27;106123;1252;74606;-57
2023/11/15 10:49:04;;;;;;;10.60;6.20;;;;;;;11.21;100.00;99175.15;105861;1254;67503;-57
2023/11/15 10:51:41;;;;;;;14.00;6.80;;;;;;;11.20;100.00;99168.50;105743;1254;71654;-57
2023/11/15 10:54:09;;;;;;;10.90;6.00;;;;;;;11.21;100.00;99166.52;105924;1251;62309;-57
2023/11/15 10:56:37;;;;;;;11.00;6.80;;;;;;;11.24;100.00;99161.77;105872;1251;61320;-57
2023/11/15 10:59:04;;;;;;;12.40;6.80;;;;;;;11.25;100.00;99161.85;105831;1253;76080;-57
2023/11/15 11:01:34;;;;;;;12.60;6.20;;;;;;;11.26;100.00;99162.13;105911;1251;68623;-57
2023/11/15 11:04:07;;;;;;;10.70;5.70;;;;;;;11.24;100.00;99162.05;105851;1251;71400;-55
2023/11/15 11:07:10;;;;;;;14.60;6.90;;;;;;;11.19;100.00;99164.37;105963;1251;61275;-57
2023/11/15 11:09:43;;;;;;;8.60;5.90;;;;;;;11.15;100.00;99160.99;105788;1254;61423;-59
2023/11/15 11:12:11;;;;;;;10.50;5.80;;;;;;;11.12;100.00;99159.66;106371;1251;74360;-59
2023/11/15 11:14:40;;;;;;;12.00;6.50;;;;;;;11.13;100.00;99153.48;106124;1251;68711;-59
2023/11/15 11:17:30;;;;;;;10.90;6.10;;;;;;;11.10;100.00;99154.27;105905;1254;73205;-57
2023/11/15 11:19:58;;;;;;;13.20;6.50;;;;;;;11.04;100.00;99167.42;106369;1251;61330;-58
2023/11/15 11:22:26;;;;;;;11.50;6.80;;;;;;;10.97;100.00;99174.58;106359;1257;61783;-61